sensor_id;sensor_type;location;lat;lon;timestamp;P1;P2;P0
77354;PMS7003;66422;51.202;19.936;2024-03-25T00:05:01;97.00;64.50;43.50
77354;PMS7003;66422;51.202;19.936;2024-03-25T00:20:21;45.00;35.00;26.50
77354;PMS7003;66422;51.202;19.936;2024-03-25T00:35:41;44.00;28.50;22.50
77354;PMS7003;66422;51.202;19.936;2024-03-25T00:51:01;69.00;50.00;34.00
77354;PMS7003;66422;51.202;19.936;2024-03-25T01:06:20;41.50;30.50;20.50
77354;PMS7003;66422;51.202;19.936;2024-03-25T01:21:41;32.00;27.00;22.00
77354;PMS7003;66422;51.202;19.936;2024-03-25T01:37:01;65.00;44.00;31.00
77354;PMS7003;66422;51.202;19.936;2024-03-25T01:52:21;46.00;28.33;20.00
77354;PMS7003;66422;51.202;19.936;2024-03-25T02:07:42;37.00;27.67;17.67
77354;PMS7003;66422;51.202;19.936;2024-03-25T02:23:03;44.00;29.33;20.67
77354;PMS7003;66422;51.202;19.936;2024-03-25T02:38:23;69.00;47.50;30.00
77354;PMS7003;66422;51.202;19.936;2024-03-25T02:53:43;49.00;37.00;24.00
77354;PMS7003;66422;51.202;19.936;2024-03-25T03:09:03;44.00;32.00;25.00
77354;PMS7003;66422;51.202;19.936;2024-03-25T03:24:23;98.00;70.00;46.00
77354;PMS7003;66422;51.202;19.936;2024-03-25T03:39:43;48.00;38.00;27.00
77354;PMS7003;66422;51.202;19.936;2024-03-25T03:55:03;47.00;31.00;24.00
77354;PMS7003;66422;51.202;19.936;2024-03-25T04:10:24;38.33;27.67;17.00
77354;PMS7003;66422;51.202;19.936;2024-03-25T04:25:43;50.00;28.50;22.00
77354;PMS7003;66422;51.202;19.936;2024-03-25T04:41:03;50.00;35.50;25.00
77354;PMS7003;66422;51.202;19.936;2024-03-25T04:56:22;37.00;24.67;18.67
77354;PMS7003;66422;51.202;19.936;2024-03-25T05:11:42;26.00;22.00;16.33
77354;PMS7003;66422;51.202;19.936;2024-03-25T05:27:02;29.00;26.00;21.00
77354;PMS7003;66422;51.202;19.936;2024-03-25T05:42:21;41.00;29.00;16.00
77354;PMS7003;66422;51.202;19.936;2024-03-25T05:57:41;32.50;26.00;18.00
77354;PMS7003;66422;51.202;19.936;2024-03-25T06:13:01;36.00;22.00;16.00
77354;PMS7003;66422;51.202;19.936;2024-03-25T06:28:21;45.00;36.00;21.67
77354;PMS7003;66422;51.202;19.936;2024-03-25T06:43:41;29.67;22.00;14.67
77354;PMS7003;66422;51.202;19.936;2024-03-25T06:59:01;29.00;22.50;15.50
77354;PMS7003;66422;51.202;19.936;2024-03-25T07:14:20;28.50;22.00;16.00
77354;PMS7003;66422;51.202;19.936;2024-03-25T07:29:40;25.00;19.00;13.00
77354;PMS7003;66422;51.202;19.936;2024-03-25T07:45:00;9.50;9.50;8.00
77354;PMS7003;66422;51.202;19.936;2024-03-25T08:00:20;10.00;5.00;5.00
77354;PMS7003;66422;51.202;19.936;2024-03-25T08:15:39;10.00;8.00;6.00
77354;PMS7003;66422;51.202;19.936;2024-03-25T08:31:01;14.00;12.00;8.00
77354;PMS7003;66422;51.202;19.936;2024-03-25T08:46:20;17.50;13.00;9.50
77354;PMS7003;66422;51.202;19.936;2024-03-25T09:01:40;14.50;9.00;6.00
77354;PMS7003;66422;51.202;19.936;2024-03-25T09:17:00;15.00;14.00;9.00
77354;PMS7003;66422;51.202;19.936;2024-03-25T09:32:20;18.00;14.00;10.00
77354;PMS7003;66422;51.202;19.936;2024-03-25T09:47:40;19.00;16.00;11.50
77354;PMS7003;66422;51.202;19.936;2024-03-25T10:03:00;22.00;16.00;11.00
77354;PMS7003;66422;51.202;19.936;2024-03-25T10:18:20;14.33;10.67;7.00
77354;PMS7003;66422;51.202;19.936;2024-03-25T10:33:39;11.00;8.00;7.00
77354;PMS7003;66422;51.202;19.936;2024-03-25T10:49:08;24.33;16.33;10.33
77354;PMS7003;66422;51.202;19.936;2024-03-25T11:04:40;11.00;11.00;8.00
77354;PMS7003;66422;51.202;19.936;2024-03-25T11:20:13;21.50;11.50;10.00
77354;PMS7003;66422;51.202;19.936;2024-03-25T11:35:38;19.67;11.33;8.00
77354;PMS7003;66422;51.202;19.936;2024-03-25T11:50:58;6.00;6.00;4.00
77354;PMS7003;66422;51.202;19.936;2024-03-25T12:06:19;8.00;4.00;3.00
77354;PMS7003;66422;51.202;19.936;2024-03-25T12:21:39;8.33;4.67;2.33
77354;PMS7003;66422;51.202;19.936;2024-03-25T12:37:02;6.50;6.00;3.50
77354;PMS7003;66422;51.202;19.936;2024-03-25T12:52:23;2.00;2.00;1.75
77354;PMS7003;66422;51.202;19.936;2024-03-25T13:07:43;15.00;10.00;6.50
77354;PMS7003;66422;51.202;19.936;2024-03-25T13:23:03;9.00;6.00;3.00
77354;PMS7003;66422;51.202;19.936;2024-03-25T13:38:23;3.00;1.00;1.00
77354;PMS7003;66422;51.202;19.936;2024-03-25T13:53:44;2.00;2.00;1.00
77354;PMS7003;66422;51.202;19.936;2024-03-25T14:09:04;5.00;3.00;3.00
77354;PMS7003;66422;51.202;19.936;2024-03-25T14:24:24;2.00;2.00;1.00
77354;PMS7003;66422;51.202;19.936;2024-03-25T14:39:43;7.00;2.00;2.00
77354;PMS7003;66422;51.202;19.936;2024-03-25T14:55:03;11.00;5.00;3.00
77354;PMS7003;66422;51.202;19.936;2024-03-25T15:10:23;7.50;5.00;5.00
77354;PMS7003;66422;51.202;19.936;2024-03-25T15:25:43;4.00;4.00;2.00
77354;PMS7003;66422;51.202;19.936;2024-03-25T15:41:02;3.67;3.67;3.00
77354;PMS7003;66422;51.202;19.936;2024-03-25T15:56:23;6.00;3.67;2.67
77354;PMS7003;66422;51.202;19.936;2024-03-25T16:11:43;27.00;17.00;12.00
77354;PMS7003;66422;51.202;19.936;2024-03-25T16:27:02;28.00;22.00;14.00
77354;PMS7003;66422;51.202;19.936;2024-03-25T16:42:23;13.00;6.00;5.00
77354;PMS7003;66422;51.202;19.936;2024-03-25T16:57:43;53.00;28.00;21.00
77354;PMS7003;66422;51.202;19.936;2024-03-25T17:13:03;7.00;4.00;2.00
77354;PMS7003;66422;51.202;19.936;2024-03-25T17:28:23;9.00;6.00;4.00
77354;PMS7003;66422;51.202;19.936;2024-03-25T17:43:43;13.00;8.00;6.00
77354;PMS7003;66422;51.202;19.936;2024-03-25T17:59:03;8.50;6.00;4.00
77354;PMS7003;66422;51.202;19.936;2024-03-25T18:14:23;22.50;14.00;9.00
77354;PMS7003;66422;51.202;19.936;2024-03-25T18:29:43;10.75;10.00;7.50
77354;PMS7003;66422;51.202;19.936;2024-03-25T18:45:02;16.00;11.00;7.50
77354;PMS7003;66422;51.202;19.936;2024-03-25T19:00:22;12.00;9.50;7.00
77354;PMS7003;66422;51.202;19.936;2024-03-25T19:15:43;12.33;8.00;7.00
77354;PMS7003;66422;51.202;19.936;2024-03-25T19:31:03;24.00;16.50;12.00
77354;PMS7003;66422;51.202;19.936;2024-03-25T19:46:23;20.00;14.50;11.00
77354;PMS7003;66422;51.202;19.936;2024-03-25T20:01:43;16.00;11.00;7.00
77354;PMS7003;66422;51.202;19.936;2024-03-25T20:17:03;32.67;18.67;10.33
77354;PMS7003;66422;51.202;19.936;2024-03-25T20:32:23;42.67;27.67;20.33
77354;PMS7003;66422;51.202;19.936;2024-03-25T20:47:43;18.50;14.00;11.50
77354;PMS7003;66422;51.202;19.936;2024-03-25T21:03:03;102.75;68.25;40.50
77354;PMS7003;66422;51.202;19.936;2024-03-25T21:18:23;29.00;16.67;10.33
77354;PMS7003;66422;51.202;19.936;2024-03-25T21:33:43;40.00;30.00;21.00
77354;PMS7003;66422;51.202;19.936;2024-03-25T21:49:03;34.50;26.00;18.50
77354;PMS7003;66422;51.202;19.936;2024-03-25T22:04:23;43.00;31.00;21.00
77354;PMS7003;66422;51.202;19.936;2024-03-25T22:19:42;52.50;39.50;24.50
77354;PMS7003;66422;51.202;19.936;2024-03-25T22:35:02;95.00;68.00;40.00
77354;PMS7003;66422;51.202;19.936;2024-03-25T22:50:23;27.00;23.00;17.00
77354;PMS7003;66422;51.202;19.936;2024-03-25T23:05:42;48.50;30.00;18.00
77354;PMS7003;66422;51.202;19.936;2024-03-25T23:21:02;34.67;27.33;19.33
77354;PMS7003;66422;51.202;19.936;2024-03-25T23:36:23;65.00;43.00;30.50
77354;PMS7003;66422;51.202;19.936;2024-03-25T23:51:42;63.67;41.67;25.00
